Time;durP1;ratioP1;P1;durP2;ratioP2;P2;SDS_P1;SDS_P2;PMS_P1;PMS_P2;Temp;Humidity;BMP_temperature;BMP_pressure;BME280_temperature;BME280_humidity;BME280_pressure;Samples;Min_cycle;Max_cycle;Signal;HPM_P1;HPM_P2
2023/03/22 00:02:11;;;;;;;;;;;22.30;51.30;;;;;;6132049;29;19923;-46
2023/03/22 00:05:13;;;;;;;;;;;22.40;51.30;;;;;;6132130;29;19929;-46
2023/03/22 00:08:14;;;;;;;;;;;22.20;51.30;;;;;;6132256;29;19922;-49
2023/03/22 00:11:15;;;;;;;;;;;22.70;51.40;;;;;;6131264;29;20451;-50
2023/03/22 00:14:17;;;;;;;;;;;22.50;51.50;;;;;;6129821;29;19934;-47
2023/03/22 00:17:21;;;;;;;;;;;22.10;51.30;;;;;;6131497;29;20379;-46
2023/03/22 00:20:23;;;;;;;;;;;22.30;51.40;;;;;;6133061;29;19922;-46
2023/03/22 00:23:24;;;;;;;;;;;22.20;51.20;;;;;;6133366;29;19922;-48
2023/03/22 00:26:25;;;;;;;;;;;22.50;51.60;;;;;;6133977;29;20360;-46
2023/03/22 00:29:27;;;;;;;;;;;22.20;51.50;;;;;;6134235;29;19922;-46
2023/03/22 00:32:33;;;;;;;;;;;22.60;51.70;;;;;;6132896;29;19926;-48
2023/03/22 00:35:34;;;;;;;;;;;22.30;51.60;;;;;;6133269;29;19923;-47
2023/03/22 00:38:37;;;;;;;;;;;22.20;51.20;;;;;;6132585;29;19926;-50
2023/03/22 00:41:47;;;;;;;;;;;22.40;51.60;;;;;;6129827;29;20394;-45
2023/03/22 00:44:49;;;;;;;;;;;22.50;51.70;;;;;;6147604;29;19923;-45
2023/03/22 00:47:51;;;;;;;;;;;22.10;51.60;;;;;;6131674;29;20372;-46
2023/03/22 00:50:55;;;;;;;;;;;22.20;51.50;;;;;;6131704;29;20318;-47
2023/03/22 00:53:57;;;;;;;;;;;22.30;48.90;;;;;;6131892;29;20360;-48
2023/03/22 00:56:58;;;;;;;;;;;22.20;51.60;;;;;;6131395;29;20371;-48
2023/03/22 01:00:07;;;;;;;;;;;22.20;51.70;;;;;;6133034;28;19930;-46
2023/03/22 01:03:09;;;;;;;;;;;22.60;51.90;;;;;;6134658;29;20456;-47
2023/03/22 01:06:11;;;;;;;;;;;22.90;52.00;;;;;;6132847;28;20387;-48
2023/03/22 01:09:13;;;;;;;;;;;22.20;51.30;;;;;;6134164;29;20299;-49
2023/03/22 01:12:18;;;;;;;;;;;22.50;52.00;;;;;;6135985;29;20315;-49
2023/03/22 01:15:19;;;;;;;;;;;22.30;50.70;;;;;;6136529;29;19923;-46
2023/03/22 01:18:21;;;;;;;;;;;22.20;51.90;;;;;;6139728;29;19929;-46
2023/03/22 01:21:22;;;;;;;;;;;22.40;51.90;;;;;;6140023;29;19954;-46
2023/03/22 01:24:26;;;;;;;;;;;22.20;51.90;;;;;;6139070;29;19929;-45
2023/03/22 01:27:28;;;;;;;;;;;22.60;52.10;;;;;;6135976;29;19947;-45
2023/03/22 01:30:29;;;;;;;;;;;22.20;51.90;;;;;;6139341;29;20005;-47
2023/03/22 01:33:31;;;;;;;;;;;22.40;52.10;;;;;;6137457;29;19975;-49
2023/03/22 01:36:33;;;;;;;;;;;22.80;52.30;;;;;;6140116;29;19945;-48
2023/03/22 01:39:34;;;;;;;;;;;22.40;51.60;;;;;;6134679;29;19990;-45
2023/03/22 01:42:39;;;;;;;;;;;22.10;52.10;;;;;;6132710;29;19926;-47
2023/03/22 01:45:50;;;;;;;;;;;22.60;52.20;;;;;;6135089;29;19923;-45
2023/03/22 01:48:53;;;;;;;;;;;22.10;52.00;;;;;;6139228;29;19927;-47
2023/03/22 01:51:56;;;;;;;;;;;22.20;52.00;;;;;;6140930;29;19930;-50
2023/03/22 01:55:10;;;;;;;;;;;22.10;51.90;;;;;;6136401;29;19981;-48
2023/03/22 01:58:18;;;;;;;;;;;22.10;52.00;;;;;;6133387;29;19927;-46
2023/03/22 02:01:24;;;;;;;;;;;22.10;52.00;;;;;;6139861;28;20347;-46
2023/03/22 02:04:32;;;;;;;;;;;22.10;52.00;;;;;;6139634;29;20397;-48
2023/03/22 02:07:36;;;;;;;;;;;22.50;52.20;;;;;;6140566;29;19930;-45
2023/03/22 02:10:37;;;;;;;;;;;22.20;52.00;;;;;;6145738;29;19923;-48
2023/03/22 02:13:48;;;;;;;;;;;22.00;52.10;;;;;;6141853;29;19923;-50
2023/03/22 02:17:18;;;;;;;;;;;22.00;51.90;;;;;;6138402;29;19922;-49
2023/03/22 02:20:46;;;;;;;;;;;22.40;52.20;;;;;;6137480;29;19923;-47
2023/03/22 02:23:55;;;;;;;;;;;22.40;52.20;;;;;;6134931;29;19923;-49
2023/03/22 02:27:10;;;;;;;;;;;22.00;52.00;;;;;;6139746;29;19958;-48
2023/03/22 02:30:20;;;;;;;;;;;22.20;52.00;;;;;;6138383;29;19922;-48
2023/03/22 02:33:37;;;;;;;;;;;22.70;52.30;;;;;;6135567;28;20055;-49
2023/03/22 02:36:56;;;;;;;;;;;22.50;52.20;;;;;;6135518;28;19970;-46
2023/03/22 02:40:04;;;;;;;;;;;22.30;52.30;;;;;;6136208;29;20288;-48
2023/03/22 02:43:10;;;;;;;;;;;22.40;52.50;;;;;;6135476;29;20372;-47
2023/03/22 02:46:16;;;;;;;;;;;22.00;52.20;;;;;;6135225;28;20010;-50
2023/03/22 02:49:20;;;;;;;;;;;22.40;52.50;;;;;;6135555;29;19926;-49
2023/03/22 02:52:26;;;;;;;;;;;22.00;52.20;;;;;;6135646;29;19923;-50
2023/03/22 02:55:29;;;;;;;;;;;22.40;52.40;;;;;;6134149;29;19930;-49
2023/03/22 02:58:34;;;;;;;;;;;22.10;52.50;;;;;;6134988;29;19950;-51
2023/03/22 03:01:38;;;;;;;;;;;22.20;52.30;;;;;;6135022;29;19927;-51
2023/03/22 03:04:44;;;;;;;;;;;22.80;52.70;;;;;;6134768;29;19922;-47
2023/03/22 03:07:47;;;;;;;;;;;22.10;52.40;;;;;;6134783;29;19923;-47
2023/03/22 03:10:50;;;;;;;;;;;22.20;52.30;;;;;;6134373;29;19962;-47
2023/03/22 03:13:53;;;;;;;;;;;22.00;52.40;;;;;;6134513;29;20036;-51
2023/03/22 03:17:05;;;;;;;;;;;22.30;49.80;;;;;;6134699;29;19929;-50
2023/03/22 03:20:16;;;;;;;;;;;22.00;52.20;;;;;;6135051;29;19923;-48
2023/03/22 03:23:27;;;;;;;;;;;22.00;52.40;;;;;;6135025;29;19927;-45
2023/03/22 03:26:34;;;;;;;;;;;22.40;52.60;;;;;;6135140;29;19927;-48
2023/03/22 03:29:38;;;;;;;;;;;22.10;52.50;;;;;;6134223;29;19930;-48
2023/03/22 03:32:43;;;;;;;;;;;22.40;52.50;;;;;;6135368;29;20036;-48
2023/03/22 03:35:47;;;;;;;;;;;22.70;52.80;;;;;;6135322;29;19923;-48
2023/03/22 03:38:52;;;;;;;;;;;22.10;52.40;;;;;;6135208;29;19924;-47
2023/03/22 03:41:55;;;;;;;;;;;22.00;52.50;;;;;;6136160;29;19922;-46
2023/03/22 03:44:57;;;;;;;;;;;22.10;52.60;;;;;;6135140;29;19930;-48
2023/03/22 03:48:01;;;;;;;;;;;22.10;52.40;;;;;;6135026;29;19926;-46
2023/03/22 03:51:03;;;;;;;;;;;22.00;52.50;;;;;;6135169;29;19930;-46
2023/03/22 03:54:04;;;;;;;;;;;21.90;52.30;;;;;;6135591;29;20442;-51
2023/03/22 03:57:06;;;;;;;;;;;22.30;52.70;;;;;;6133307;29;19922;-47
2023/03/22 04:00:08;;;;;;;;;;;21.90;52.50;;;;;;6131243;29;20286;-45
2023/03/22 04:08:03;;;;;;;;;;;22.50;50.10;;;;;;6130811;29;19940;-47
2023/03/22 04:11:07;;;;;;;;;;;22.20;52.60;;;;;;6130455;29;19923;-47
2023/03/22 04:14:10;;;;;;;;;;;21.90;52.70;;;;;;6131533;29;19929;-48
2023/03/22 04:17:14;;;;;;;;;;;21.80;52.60;;;;;;6132190;28;19969;-48
2023/03/22 04:20:16;;;;;;;;;;;22.30;52.80;;;;;;6132181;29;19922;-49
2023/03/22 04:23:21;;;;;;;;;;;21.80;52.40;;;;;;6133542;28;20425;-48
2023/03/22 04:26:22;;;;;;;;;;;22.00;52.70;;;;;;6135072;29;19923;-47
2023/03/22 04:29:47;;;;;;;;;;;21.90;52.50;;;;;;6137153;29;19923;-45
2023/03/22 04:33:06;;;;;;;;;;;22.30;52.70;;;;;;6135869;29;19977;-46
2023/03/22 04:36:35;;;;;;;;;;;22.60;53.10;;;;;;6136645;28;19930;-46
2023/03/22 04:39:47;;;;;;;;;;;22.30;52.80;;;;;;6135682;29;19930;-46
2023/03/22 04:43:03;;;;;;;;;;;22.40;52.90;;;;;;6137845;29;19930;-46
2023/03/22 04:46:30;;;;;;;;;;;22.20;52.60;;;;;;6137682;28;19922;-46
2023/03/22 04:49:37;;;;;;;;;;;22.20;52.90;;;;;;6137547;28;19922;-45
2023/03/22 04:52:39;;;;;;;;;;;21.80;52.70;;;;;;6138245;29;19923;-47
2023/03/22 04:55:41;;;;;;;;;;;21.80;52.70;;;;;;6138130;29;19986;-49
2023/03/22 04:58:44;;;;;;;;;;;22.10;52.60;;;;;;6138315;29;20291;-49
2023/03/22 05:01:47;;;;;;;;;;;22.60;52.90;;;;;;6137361;29;19922;-46
2023/03/22 05:04:53;;;;;;;;;;;22.00;52.70;;;;;;6139625;29;20395;-48
2023/03/22 05:08:05;;;;;;;;;;;21.90;52.80;;;;;;6139166;29;19922;-46
2023/03/22 05:11:08;;;;;;;;;;;22.10;52.70;;;;;;6138734;29;19929;-47
2023/03/22 05:14:10;;;;;;;;;;;21.90;52.70;;;;;;6139169;29;19923;-47
2023/03/22 05:17:12;;;;;;;;;;;21.90;52.80;;;;;;6138949;29;19922;-48
2023/03/22 05:20:15;;;;;;;;;;;21.90;52.80;;;;;;6138788;29;19929;-50
2023/03/22 05:23:21;;;;;;;;;;;22.00;52.80;;;;;;6138190;29;19956;-49
2023/03/22 05:26:26;;;;;;;;;;;22.20;53.00;;;;;;6137596;29;19922;-45
2023/03/22 05:29:35;;;;;;;;;;;22.30;53.20;;;;;;6137108;29;19922;-50
2023/03/22 05:32:43;;;;;;;;;;;21.90;52.70;;;;;;6137470;29;19923;-50
2023/03/22 05:35:45;;;;;;;;;;;22.30;53.00;;;;;;6141711;29;19966;-47
2023/03/22 05:38:47;;;;;;;;;;;21.90;52.80;;;;;;6141402;29;19958;-47
2023/03/22 05:41:50;;;;;;;;;;;22.10;52.90;;;;;;6140966;29;20391;-50
2023/03/22 05:44:51;;;;;;;;;;;22.20;50.20;;;;;;6139853;29;19974;-49
2023/03/22 05:47:55;;;;;;;;;;;22.00;52.90;;;;;;6140533;29;19929;-47
2023/03/22 05:50:56;;;;;;;;;;;21.80;52.80;;;;;;6140872;29;19922;-49
2023/03/22 05:53:58;;;;;;;;;;;22.00;52.60;;;;;;6140299;29;19930;-50
2023/03/22 05:57:07;;;;;;;;;;;22.20;52.40;;;;;;6146306;29;19930;-48
2023/03/22 06:00:12;;;;;;;;;;;22.20;53.10;;;;;;6144286;29;19923;-46
2023/03/22 06:03:21;;;;;;;;;;;21.80;52.80;;;;;;6142490;29;19974;-48
2023/03/22 06:06:29;;;;;;;;;;;22.20;53.00;;;;;;6142247;29;19926;-48
2023/03/22 06:09:39;;;;;;;;;;;22.30;53.80;;;;;;6141200;29;19926;-50
2023/03/22 06:12:44;;;;;;;;;;;21.80;52.90;;;;;;6140365;29;19923;-49
2023/03/22 06:15:58;;;;;;;;;;;22.30;53.00;;;;;;6141236;29;19930;-50
2023/03/22 06:19:01;;;;;;;;;;;22.00;52.90;;;;;;6141739;29;19930;-50
2023/03/22 06:22:03;;;;;;;;;;;21.80;53.00;;;;;;6140695;29;19929;-49
2023/03/22 06:25:07;;;;;;;;;;;22.30;53.30;;;;;;6143894;29;20010;-49
2023/03/22 06:28:14;;;;;;;;;;;21.80;53.00;;;;;;6145838;29;19923;-49
2023/03/22 06:31:23;;;;;;;;;;;21.90;53.00;;;;;;6144278;29;20302;-48
2023/03/22 06:34:31;;;;;;;;;;;22.40;53.10;;;;;;6141638;29;19923;-47
2023/03/22 06:37:36;;;;;;;;;;;21.90;53.00;;;;;;6144374;29;19954;-50
2023/03/22 06:40:38;;;;;;;;;;;22.10;53.10;;;;;;6146272;29;20387;-48
2023/03/22 06:43:40;;;;;;;;;;;21.90;52.70;;;;;;6144056;29;19922;-49
2023/03/22 06:46:56;;;;;;;;;;;22.50;53.40;;;;;;6143648;29;19922;-48
2023/03/22 06:50:17;;;;;;;;;;;22.20;53.10;;;;;;6146296;29;19922;-46
2023/03/22 06:53:35;;;;;;;;;;;22.70;53.40;;;;;;6148438;29;19923;-48
2023/03/22 06:56:37;;;;;;;;;;;22.20;52.70;;;;;;6150016;29;19922;-45
2023/03/22 06:59:40;;;;;;;;;;;22.20;53.00;;;;;;6148834;29;19929;-47
2023/03/22 07:02:45;;;;;;;;;;;22.20;53.10;;;;;;6150542;29;19923;-48
2023/03/22 07:06:00;;;;;;;;;;;22.30;53.20;;;;;;6151334;29;19946;-49
2023/03/22 07:09:04;;;;;;;;;;;21.80;52.80;;;;;;6147520;29;19945;-49
2023/03/22 07:12:11;;;;;;;;;;;22.30;53.20;;;;;;6151633;29;19922;-48
2023/03/22 07:15:16;;;;;;;;;;;22.10;52.40;;;;;;6153004;29;19922;-48
2023/03/22 07:18:26;;;;;;;;;;;22.40;52.80;;;;;;6147169;29;19946;-48
2023/03/22 07:21:28;;;;;;;;;;;22.00;53.00;;;;;;6143914;29;20380;-49
2023/03/22 07:24:34;;;;;;;;;;;22.40;53.20;;;;;;6145003;29;19922;-50
2023/03/22 07:27:39;;;;;;;;;;;22.20;52.50;;;;;;6145017;29;19954;-50
2023/03/22 07:30:40;;;;;;;;;;;22.40;50.30;;;;;;6144127;29;19946;-46
2023/03/22 07:33:43;;;;;;;;;;;22.00;52.60;;;;;;6142380;29;19922;-45
2023/03/22 07:36:46;;;;;;;;;;;22.40;53.50;;;;;;6148131;28;19947;-45
2023/03/22 07:39:48;;;;;;;;;;;22.00;52.80;;;;;;6147898;29;20066;-49
2023/03/22 07:42:50;;;;;;;;;;;22.60;52.90;;;;;;6149834;28;19930;-49
2023/03/22 07:45:59;;;;;;;;;;;22.20;52.80;;;;;;6150862;29;19923;-49
2023/03/22 07:49:17;;;;;;;;;;;22.40;52.60;;;;;;6150997;29;19930;-45
2023/03/22 07:52:39;;;;;;;;;;;22.10;52.40;;;;;;6152543;29;20001;-47
2023/03/22 07:55:41;;;;;;;;;;;22.50;52.80;;;;;;6149520;28;19923;-50
2023/03/22 07:58:44;;;;;;;;;;;22.20;52.40;;;;;;6144546;29;19923;-49
2023/03/22 08:01:47;;;;;;;;;;;22.60;52.90;;;;;;6136304;28;19928;-45
2023/03/22 08:04:58;;;;;;;;;;;22.10;52.30;;;;;;6145611;29;19987;-50
2023/03/22 08:08:12;;;;;;;;;;;22.60;52.80;;;;;;6149331;28;19926;-50
2023/03/22 08:11:14;;;;;;;;;;;22.50;52.70;;;;;;6135680;29;19950;-52
2023/03/22 08:14:15;;;;;;;;;;;22.60;52.70;;;;;;6145787;29;19946;-49
2023/03/22 08:17:21;;;;;;;;;;;22.50;52.20;;;;;;6141633;29;19938;-49
2023/03/22 08:20:24;;;;;;;;;;;22.80;52.60;;;;;;6142043;28;19922;-48
2023/03/22 08:23:29;;;;;;;;;;;22.60;52.40;;;;;;6145112;29;20009;-47
2023/03/22 08:26:57;;;;;;;;;;;22.50;52.30;;;;;;6138969;29;19974;-46
2023/03/22 08:30:09;;;;;;;;;;;22.70;51.90;;;;;;6134069;29;20349;-51
2023/03/22 08:33:11;;;;;;;;;;;22.40;51.80;;;;;;6128762;29;19922;-50
2023/03/22 08:36:15;;;;;;;;;;;22.30;51.60;;;;;;6128307;29;19993;-51
2023/03/22 08:39:22;;;;;;;;;;;22.90;52.00;;;;;;6134613;29;19929;-49
2023/03/22 08:42:38;;;;;;;;;;;22.90;52.00;;;;;;6137315;29;19930;-51
2023/03/22 08:45:40;;;;;;;;;;;22.90;51.90;;;;;;6131278;29;19946;-48
2023/03/22 08:48:50;;;;;;;;;;;22.60;51.40;;;;;;6137059;28;19969;-53
2023/03/22 08:51:58;;;;;;;;;;;23.00;51.70;;;;;;6137017;29;19922;-52
2023/03/22 08:55:16;;;;;;;;;;;22.60;51.40;;;;;;6128223;29;19922;-51
2023/03/22 08:58:37;;;;;;;;;;;23.10;51.60;;;;;;6132074;29;19929;-49
2023/03/22 09:02:00;;;;;;;;;;;22.80;51.40;;;;;;6133527;29;19927;-53
2023/03/22 09:05:01;;;;;;;;;;;23.10;51.00;;;;;;6127112;29;19922;-54
2023/03/22 09:08:04;;;;;;;;;;;23.00;51.30;;;;;;6125653;29;19929;-54
2023/03/22 09:11:15;;;;;;;;;;;23.10;51.20;;;;;;6156771;28;20294;-52
2023/03/22 09:14:21;;;;;;;;;;;23.00;51.40;;;;;;6126650;29;20366;-54
2023/03/22 09:17:23;;;;;;;;;;;23.20;51.40;;;;;;6127111;29;20275;-54
2023/03/22 09:20:26;;;;;;;;;;;23.00;51.10;;;;;;6126683;29;20013;-53
2023/03/22 09:23:29;;;;;;;;;;;23.10;51.20;;;;;;6126356;29;19929;-54
2023/03/22 09:26:31;;;;;;;;;;;23.30;50.80;;;;;;6126273;28;19933;-53
2023/03/22 09:29:33;;;;;;;;;;;23.00;51.10;;;;;;6126499;29;20422;-51
2023/03/22 09:32:40;;;;;;;;;;;23.30;51.20;;;;;;6126190;28;19931;-51
2023/03/22 09:35:42;;;;;;;;;;;22.90;50.90;;;;;;6126617;29;19923;-53
2023/03/22 09:38:46;;;;;;;;;;;23.30;51.10;;;;;;6126134;29;20009;-51
2023/03/22 09:41:51;;;;;;;;;;;23.20;50.60;;;;;;6125711;29;19973;-52
2023/03/22 09:44:53;;;;;;;;;;;23.50;51.30;;;;;;6126407;29;19938;-53
2023/03/22 09:47:59;;;;;;;;;;;23.30;51.00;;;;;;6125871;29;19929;-54
2023/03/22 09:51:02;;;;;;;;;;;23.40;51.00;;;;;;6126188;29;19922;-53
2023/03/22 09:54:09;;;;;;;;;;;23.00;50.70;;;;;;6126279;29;20284;-52
2023/03/22 09:57:15;;;;;;;;;;;23.60;50.80;;;;;;6134034;29;20013;-42
2023/03/22 10:00:19;;;;;;;;;;;23.10;50.60;;;;;;6135706;29;19923;-49
2023/03/22 10:03:25;;;;;;;;;;;23.20;50.30;;;;;;6133580;29;19929;-50
2023/03/22 10:06:27;;;;;;;;;;;23.40;50.50;;;;;;6133515;29;20040;-50
2023/03/22 10:09:34;;;;;;;;;;;23.60;50.60;;;;;;6135398;29;19926;-51
2023/03/22 10:12:39;;;;;;;;;;;23.40;50.60;;;;;;6135458;29;20383;-50
2023/03/22 10:15:42;;;;;;;;;;;23.50;50.30;;;;;;6132979;29;19986;-47
2023/03/22 10:18:46;;;;;;;;;;;23.60;50.60;;;;;;6133752;29;19923;-50
2023/03/22 10:21:48;;;;;;;;;;;23.70;50.60;;;;;;6137041;29;19923;-49
2023/03/22 10:24:50;;;;;;;;;;;23.50;50.50;;;;;;6135400;29;19953;-48
2023/03/22 10:27:52;;;;;;;;;;;23.60;50.50;;;;;;6132533;29;19930;-52
2023/03/22 10:30:54;;;;;;;;;;;23.40;50.40;;;;;;6133870;29;19930;-51
2023/03/22 10:33:57;;;;;;;;;;;23.40;50.20;;;;;;6133459;29;19929;-51
2023/03/22 10:37:01;;;;;;;;;;;23.60;50.50;;;;;;6136684;29;19947;-51
2023/03/22 10:40:05;;;;;;;;;;;23.70;50.50;;;;;;6139665;29;19922;-50
2023/03/22 10:43:12;;;;;;;;;;;23.60;50.50;;;;;;6135180;29;19923;-51
2023/03/22 10:46:16;;;;;;;;;;;23.90;50.70;;;;;;6137919;29;20345;-51
2023/03/22 10:49:21;;;;;;;;;;;23.50;50.20;;;;;;6132507;29;19950;-52
2023/03/22 10:52:28;;;;;;;;;;;23.60;50.40;;;;;;6132134;29;20330;-50
2023/03/22 10:55:29;;;;;;;;;;;23.20;50.10;;;;;;6131179;29;20390;-52
2023/03/22 10:58:32;;;;;;;;;;;23.90;50.50;;;;;;6129675;29;19923;-52
2023/03/22 11:01:36;;;;;;;;;;;23.60;50.50;;;;;;6133097;29;19923;-49
2023/03/22 11:04:38;;;;;;;;;;;23.80;50.00;;;;;;6133542;29;19923;-52
2023/03/22 11:07:42;;;;;;;;;;;23.50;48.90;;;;;;6135323;29;19939;-49
2023/03/22 11:10:49;;;;;;;;;;;23.90;49.90;;;;;;6139361;28;19926;-50
2023/03/22 11:13:53;;;;;;;;;;;23.30;50.20;;;;;;6139112;29;19930;-49
2023/03/22 11:16:58;;;;;;;;;;;23.80;50.40;;;;;;6135962;29;19929;-50
2023/03/22 11:20:00;;;;;;;;;;;23.50;50.30;;;;;;6141012;29;19926;-50
2023/03/22 11:23:04;;;;;;;;;;;23.70;50.30;;;;;;6139114;29;19923;-51
2023/03/22 11:26:10;;;;;;;;;;;23.60;51.20;;;;;;6136192;29;19922;-45
2023/03/22 11:29:13;;;;;;;;;;;23.40;50.40;;;;;;6139624;29;19922;-45
2023/03/22 11:32:25;;;;;;;;;;;23.50;50.60;;;;;;6145556;29;19929;-47
2023/03/22 11:35:28;;;;;;;;;;;23.70;50.80;;;;;;6145522;29;19947;-47
2023/03/22 11:38:37;;;;;;;;;;;23.60;50.70;;;;;;6146625;29;19922;-46
2023/03/22 11:41:39;;;;;;;;;;;23.40;50.70;;;;;;6138160;29;19990;-44
2023/03/22 11:44:42;;;;;;;;;;;23.50;50.90;;;;;;6135614;29;19926;-48
2023/03/22 11:47:44;;;;;;;;;;;23.70;50.50;;;;;;6137615;29;19923;-48
2023/03/22 11:50:46;;;;;;;;;;;23.30;50.50;;;;;;6141091;29;19923;-48
2023/03/22 11:53:47;;;;;;;;;;;23.70;50.20;;;;;;6139923;29;19923;-46
2023/03/22 11:56:49;;;;;;;;;;;23.40;51.00;;;;;;6138455;29;20453;-47
2023/03/22 11:59:54;;;;;;;;;;;23.60;51.30;;;;;;6140215;29;19927;-45
2023/03/22 12:02:58;;;;;;;;;;;23.30;51.00;;;;;;6139987;29;19930;-46
2023/03/22 12:06:01;;;;;;;;;;;23.70;51.30;;;;;;6139707;29;19923;-47
2023/03/22 12:09:05;;;;;;;;;;;23.60;51.30;;;;;;6138456;29;19958;-48
2023/03/22 12:12:11;;;;;;;;;;;23.60;51.30;;;;;;6138236;29;19930;-48
2023/03/22 12:15:16;;;;;;;;;;;23.30;51.10;;;;;;6138463;29;20022;-47
2023/03/22 12:18:21;;;;;;;;;;;23.60;51.30;;;;;;6138912;29;19930;-47
2023/03/22 12:21:22;;;;;;;;;;;23.50;51.40;;;;;;6139095;29;20393;-46
2023/03/22 12:24:26;;;;;;;;;;;23.70;51.60;;;;;;6139205;29;19922;-46
2023/03/22 12:27:33;;;;;;;;;;;23.30;51.30;;;;;;6137288;29;19978;-48
2023/03/22 12:30:39;;;;;;;;;;;23.60;51.20;;;;;;6137323;29;19975;-48
2023/03/22 12:33:45;;;;;;;;;;;23.30;51.30;;;;;;6136304;29;19930;-50
2023/03/22 12:36:47;;;;;;;;;;;23.60;51.60;;;;;;6136783;28;19922;-46
2023/03/22 12:39:51;;;;;;;;;;;23.10;51.30;;;;;;6136272;29;19923;-50
2023/03/22 12:42:58;;;;;;;;;;;23.40;51.40;;;;;;6128111;29;19930;-51
2023/03/22 12:46:03;;;;;;;;;;;23.10;51.40;;;;;;6130119;29;19923;-51
2023/03/22 12:49:11;;;;;;;;;;;23.50;51.50;;;;;;6132868;28;19955;-49
2023/03/22 12:52:14;;;;;;;;;;;23.50;52.10;;;;;;6132407;29;19927;-51
2023/03/22 12:55:19;;;;;;;;;;;23.40;51.60;;;;;;6131285;28;19923;-51
2023/03/22 12:58:21;;;;;;;;;;;23.50;51.70;;;;;;6135241;29;19927;-45
2023/03/22 13:01:29;;;;;;;;;;;23.60;51.60;;;;;;6137518;28;20367;-48
2023/03/22 13:04:44;;;;;;;;;;;23.40;51.70;;;;;;6135408;29;19926;-49
2023/03/22 13:07:50;;;;;;;;;;;23.50;51.60;;;;;;6134061;29;19947;-49
2023/03/22 13:10:58;;;;;;;;;;;23.30;51.50;;;;;;6134575;29;19929;-48
2023/03/22 13:14:00;;;;;;;;;;;23.60;51.60;;;;;;6132224;29;19922;-48
2023/03/22 13:17:06;;;;;;;;;;;23.20;51.60;;;;;;6131636;29;19923;-47
2023/03/22 13:20:25;;;;;;;;;;;23.30;51.80;;;;;;6132357;29;19922;-49
2023/03/22 13:23:28;;;;;;;;;;;23.00;51.60;;;;;;6131727;29;19923;-49
2023/03/22 13:26:32;;;;;;;;;;;23.60;51.90;;;;;;6132092;29;19926;-50
2023/03/22 13:29:35;;;;;;;;;;;23.00;51.50;;;;;;6132860;29;19922;-48
2023/03/22 13:32:38;;;;;;;;;;;23.70;52.00;;;;;;6131192;29;19974;-49
2023/03/22 13:35:42;;;;;;;;;;;23.30;52.00;;;;;;6133192;29;19933;-50
2023/03/22 13:38:52;;;;;;;;;;;23.50;51.80;;;;;;6132880;29;20331;-49
2023/03/22 13:42:06;;;;;;;;;;;23.00;51.80;;;;;;6132997;29;19922;-50
2023/03/22 13:45:26;;;;;;;;;;;23.40;52.00;;;;;;6133974;29;19923;-47
2023/03/22 13:48:30;;;;;;;;;;;23.20;51.90;;;;;;6137880;29;20370;-50
2023/03/22 13:51:33;;;;;;;;;;;23.40;52.10;;;;;;6140537;29;20275;-50
2023/03/22 13:54:37;;;;;;;;;;;23.40;52.00;;;;;;6140165;29;19923;-49
2023/03/22 13:57:45;;;;;;;;;;;23.40;52.10;;;;;;6140245;29;19922;-50
2023/03/22 14:00:49;;;;;;;;;;;23.00;52.00;;;;;;6141400;29;19926;-48
2023/03/22 14:03:51;;;;;;;;;;;23.40;52.20;;;;;;6140122;29;19952;-49
2023/03/22 14:06:56;;;;;;;;;;;23.30;52.30;;;;;;6141113;29;20009;-47
2023/03/22 14:10:00;;;;;;;;;;;23.70;52.40;;;;;;6141052;29;19922;-45
2023/03/22 14:13:03;;;;;;;;;;;23.30;52.20;;;;;;6137746;29;19954;-52
2023/03/22 14:16:08;;;;;;;;;;;23.40;52.40;;;;;;6147337;29;19986;-50
2023/03/22 14:19:15;;;;;;;;;;;22.80;52.20;;;;;;6143795;29;19930;-49
2023/03/22 14:22:20;;;;;;;;;;;23.50;52.30;;;;;;6140852;29;19922;-49
2023/03/22 14:25:23;;;;;;;;;;;23.00;52.10;;;;;;6137457;29;19927;-50
2023/03/22 14:28:31;;;;;;;;;;;23.10;52.20;;;;;;6136926;29;19930;-50
2023/03/22 14:31:32;;;;;;;;;;;22.90;51.90;;;;;;6136297;29;20454;-51
2023/03/22 14:34:36;;;;;;;;;;;23.40;52.30;;;;;;6135589;29;19929;-52
2023/03/22 14:37:40;;;;;;;;;;;23.00;52.00;;;;;;6140468;29;19922;-52
2023/03/22 14:40:41;;;;;;;;;;;23.80;52.50;;;;;;6132245;29;19942;-52
2023/03/22 14:43:42;;;;;;;;;;;23.00;51.90;;;;;;6127940;29;19930;-48
2023/03/22 14:46:44;;;;;;;;;;;23.50;52.10;;;;;;6130769;29;19978;-50
2023/03/22 14:49:46;;;;;;;;;;;23.10;52.00;;;;;;6130029;29;20105;-51
2023/03/22 14:52:49;;;;;;;;;;;23.20;52.00;;;;;;6129666;29;19922;-52
2023/03/22 14:55:50;;;;;;;;;;;23.50;52.00;;;;;;6129623;29;19923;-51
2023/03/22 14:58:54;;;;;;;;;;;23.70;52.30;;;;;;6129139;29;20041;-49
2023/03/22 15:01:59;;;;;;;;;;;23.30;49.00;;;;;;6140219;29;19923;-50
2023/03/22 15:05:03;;;;;;;;;;;23.70;51.30;;;;;;6138453;29;19986;-50
2023/03/22 15:08:09;;;;;;;;;;;23.60;51.80;;;;;;6143891;29;19930;-51
2023/03/22 15:11:11;;;;;;;;;;;23.40;51.20;;;;;;6146446;29;20298;-48
2023/03/22 15:14:13;;;;;;;;;;;23.40;51.80;;;;;;6140438;29;19948;-50
2023/03/22 15:17:14;;;;;;;;;;;23.60;50.80;;;;;;6141345;29;19930;-51
2023/03/22 15:20:19;;;;;;;;;;;23.40;51.60;;;;;;6144297;29;19990;-46
2023/03/22 15:23:22;;;;;;;;;;;23.80;51.40;;;;;;6140817;29;20426;-51
2023/03/22 15:26:25;;;;;;;;;;;23.60;51.70;;;;;;6135612;29;19922;-54
2023/03/22 15:29:27;;;;;;;;;;;24.20;51.80;;;;;;6135883;29;19951;-54
2023/03/22 15:32:28;;;;;;;;;;;23.50;46.80;;;;;;6136261;29;19923;-52
2023/03/22 15:35:33;;;;;;;;;;;23.40;46.80;;;;;;6129529;29;19962;-53
2023/03/22 15:38:38;;;;;;;;;;;23.50;46.80;;;;;;6133993;29;20458;-50
2023/03/22 15:41:40;;;;;;;;;;;23.50;46.90;;;;;;6135389;29;19946;-54
2023/03/22 15:44:48;;;;;;;;;;;23.50;46.90;;;;;;6128376;29;20355;-53
2023/03/22 15:47:50;;;;;;;;;;;23.50;46.80;;;;;;6127475;29;19942;-52
2023/03/22 15:50:52;;;;;;;;;;;23.50;46.90;;;;;;6135850;29;19946;-52
2023/03/22 15:54:01;;;;;;;;;;;23.50;46.80;;;;;;6133846;29;19930;-52
2023/03/22 15:57:07;;;;;;;;;;;23.50;46.80;;;;;;6138336;29;19926;-53
2023/03/22 16:00:18;;;;;;;;;;;23.60;46.90;;;;;;6136658;29;19929;-53
2023/03/22 16:03:20;;;;;;;;;;;23.50;46.80;;;;;;6130947;29;19930;-52
2023/03/22 16:06:22;;;;;;;;;;;23.50;46.80;;;;;;6130159;29;19926;-53
2023/03/22 16:09:23;;;;;;;;;;;23.60;46.90;;;;;;6131380;29;19978;-53
2023/03/22 16:12:24;;;;;;;;;;;23.60;46.90;;;;;;6127871;29;20005;-53
2023/03/22 16:15:28;;;;;;;;;;;23.60;46.90;;;;;;6132533;29;19957;-53
2023/03/22 16:18:29;;;;;;;;;;;24.10;47.70;;;;;;6140004;29;19923;-49
2023/03/22 16:21:31;;;;;;;;;;;23.40;48.50;;;;;;6141444;29;19933;-52
2023/03/22 16:24:32;;;;;;;;;;;23.90;49.70;;;;;;6140701;29;19923;-52
2023/03/22 16:27:33;;;;;;;;;;;23.30;50.00;;;;;;6147250;29;19930;-52
2023/03/22 16:30:34;;;;;;;;;;;24.20;50.90;;;;;;6147837;29;19926;-52
2023/03/22 16:33:36;;;;;;;;;;;23.70;50.80;;;;;;6147750;29;19957;-50
2023/03/22 16:36:38;;;;;;;;;;;23.70;50.10;;;;;;6149636;29;19946;-51
2023/03/22 16:39:41;;;;;;;;;;;23.60;51.30;;;;;;6149375;29;19950;-49
2023/03/22 16:42:42;;;;;;;;;;;24.00;51.80;;;;;;6148579;29;19922;-51
2023/03/22 16:45:43;;;;;;;;;;;23.70;51.50;;;;;;6146048;29;19922;-50
2023/03/22 16:48:45;;;;;;;;;;;23.70;51.80;;;;;;6149948;29;19913;-48
2023/03/22 16:51:47;;;;;;;;;;;23.60;51.80;;;;;;6152720;29;19923;-53
2023/03/22 16:54:49;;;;;;;;;;;23.70;52.10;;;;;;6151763;29;19929;-49
2023/03/22 16:57:50;;;;;;;;;;;23.50;52.00;;;;;;6143413;29;19923;-51
2023/03/22 17:00:51;;;;;;;;;;;23.70;52.30;;;;;;6155203;29;19927;-52
2023/03/22 17:03:52;;;;;;;;;;;23.40;51.90;;;;;;6138165;29;19923;-49
2023/03/22 17:06:53;;;;;;;;;;;23.90;52.40;;;;;;6139516;29;19927;-50
2023/03/22 17:09:55;;;;;;;;;;;23.30;52.20;;;;;;6141952;29;19923;-51
2023/03/22 17:12:56;;;;;;;;;;;23.70;52.40;;;;;;6140263;29;20379;-51
2023/03/22 17:15:58;;;;;;;;;;;23.50;52.20;;;;;;6140237;29;20010;-50
2023/03/22 17:18:59;;;;;;;;;;;24.00;52.70;;;;;;6142634;29;19922;-52
2023/03/22 17:22:01;;;;;;;;;;;23.30;52.10;;;;;;6142995;29;19938;-50
2023/03/22 17:25:02;;;;;;;;;;;23.40;52.30;;;;;;6143970;29;19991;-51
2023/03/22 17:28:04;;;;;;;;;;;23.40;52.40;;;;;;6140810;29;19922;-51
2023/03/22 17:31:06;;;;;;;;;;;23.90;52.60;;;;;;6140404;29;19923;-51
2023/03/22 17:34:09;;;;;;;;;;;23.90;53.30;;;;;;6141783;29;19922;-51
2023/03/22 17:37:10;;;;;;;;;;;23.60;52.40;;;;;;6143751;29;19930;-52
2023/03/22 17:40:13;;;;;;;;;;;23.50;52.70;;;;;;6143579;29;20025;-52
2023/03/22 17:43:17;;;;;;;;;;;23.50;52.80;;;;;;6142341;29;19923;-51
2023/03/22 17:46:18;;;;;;;;;;;23.60;50.10;;;;;;6143248;29;19969;-49
2023/03/22 17:49:19;;;;;;;;;;;23.50;52.80;;;;;;6145898;29;19946;-51
2023/03/22 17:52:21;;;;;;;;;;;23.40;52.60;;;;;;6148411;29;19962;-51
2023/03/22 17:55:23;;;;;;;;;;;23.50;52.70;;;;;;6140727;29;19933;-48
2023/03/22 17:58:24;;;;;;;;;;;23.10;52.70;;;;;;6141421;29;19950;-47
2023/03/22 18:01:25;;;;;;;;;;;23.80;53.30;;;;;;6144016;29;19954;-51